Skip Navigation LinksHome page > Weather > Current weather Skip Navigation Links

Current Weather

San Francisco International, San Francisco

For information only: do not use for flight planning or navigation.
Latest weather
Observation time Thursday, November 27, 2014 2:56 PM PST
Local time Thursday, November 27, 2014 3:58 PM PST
Flight conditions Visual Meteorological Conditions
Winds
Wind direction variable
Wind speed 3 mph
Visibility 5 mi.
Present weather haze
Sky condition
Ceiling unlimited
Cloud layer few clouds 1,000 ft.
Cloud layer scattered clouds 18,000 ft.
Temperature 63°F
Dewpoint 55°F
Altimeter 30.08 in.Hg
Derived measurements
Relative humidity 75%
Density altitude 297 ft.
Sea-level pressure 30.08 in.Hg
Remarks
Automated weather observing station with precipitation discriminator.
METAR KSFO 272256Z VRB03KT 5SM HZ FEW010 SCT180 17/13 A3008 RMK AO2 SLP185 T01720128

Settings

Location code

InnerDrive.Weather 4.0.5399.0 Release CLR 4.0.30319.34014
Copyright ©2014 Inner Drive Technology. All rights reserved. Portions Copyright ©1986-2014 David Braverman.

Find weather

Site navigation


Skip Navigation Links

Place info

Page info

PayPal - The safer, easier way to pay online!

Return home.

Copyright ©2014 Inner Drive Technology. Purveyors of fine, hand-crafted computer software. Page printed 2014-11-27T23:58:41 UTC.